Time;durP1;ratioP1;P1;durP2;ratioP2;P2;SDS_P1;SDS_P2;PMS_P1;PMS_P2;Temp;Humidity;BMP_temperature;BMP_pressure;BME280_temperature;BME280_humidity;BME280_pressure;Samples;Min_cycle;Max_cycle;Signal;HPM_P1;HPM_P2
2024/01/21 00:01:37;;;;;;;10.38;5.50;;;;;;;;;;5098809;28;20033;-81
2024/01/21 00:04:02;;;;;;;8.57;5.45;;;;;;;;;;5098316;28;20028;-81
2024/01/21 00:06:27;;;;;;;10.55;5.65;;;;;;;;;;5099530;28;20030;-81
2024/01/21 00:08:53;;;;;;;12.15;5.82;;;;;;;;;;5099132;28;20016;-82
2024/01/21 00:11:18;;;;;;;12.80;5.80;;;;;;;;;;5098768;28;20095;-81
2024/01/21 00:13:44;;;;;;;12.55;5.68;;;;;;;;;;5098331;28;20381;-81
2024/01/21 00:16:09;;;;;;;14.32;5.75;;;;;;;;;;5079594;28;20030;-80
2024/01/21 00:18:35;;;;;;;14.32;5.72;;;;;;;;;;5077938;28;20483;-82
2024/01/21 00:21:00;;;;;;;9.30;5.88;;;;;;;;;;5077905;28;20032;-81
2024/01/21 00:23:25;;;;;;;14.50;5.63;;;;;;;;;;5097553;28;20042;-82
2024/01/21 00:25:51;;;;;;;13.07;6.20;;;;;;;;;;5102250;28;20044;-82
2024/01/21 00:28:16;;;;;;;10.82;5.57;;;;;;;;;;5099751;28;20379;-82
2024/01/21 00:30:41;;;;;;;11.57;6.35;;;;;;;;;;5099770;28;20404;-82
2024/01/21 00:33:07;;;;;;;15.35;7.10;;;;;;;;;;5099391;28;20022;-82
2024/01/21 00:35:32;;;;;;;15.57;6.90;;;;;;;;;;5078091;28;20016;-82
2024/01/21 00:37:57;;;;;;;15.48;7.57;;;;;;;;;;5097129;28;20028;-82
2024/01/21 00:40:23;;;;;;;14.45;8.50;;;;;;;;;;5096070;28;20505;-81
2024/01/21 00:42:48;;;;;;;15.40;7.20;;;;;;;;;;5095712;28;20066;-81
2024/01/21 00:45:13;;;;;;;18.75;6.75;;;;;;;;;;5077575;28;20450;-81
2024/01/21 00:47:39;;;;;;;17.77;6.60;;;;;;;;;;5077527;28;20389;-81
2024/01/21 00:50:04;;;;;;;13.57;7.10;;;;;;;;;;5095647;28;20080;-82
2024/01/21 00:52:29;;;;;;;12.38;6.13;;;;;;;;;;5095661;28;20016;-81
2024/01/21 00:54:55;;;;;;;11.15;5.68;;;;;;;;;;5077213;28;20020;-83
2024/01/21 00:57:20;;;;;;;12.93;6.38;;;;;;;;;;5095292;28;20370;-81
2024/01/21 00:59:45;;;;;;;14.55;6.75;;;;;;;;;;5095462;28;20077;-81
2024/01/21 01:02:11;;;;;;;8.73;5.18;;;;;;;;;;5077034;28;20487;-82
2024/01/21 01:04:36;;;;;;;15.45;6.57;;;;;;;;;;5076906;28;20035;-82
2024/01/21 01:07:01;;;;;;;12.07;6.22;;;;;;;;;;5095372;28;20054;-81
2024/01/21 01:09:27;;;;;;;11.60;5.88;;;;;;;;;;5076954;28;20028;-83
2024/01/21 01:11:52;;;;;;;10.13;5.60;;;;;;;;;;5095112;28;20008;-83
2024/01/21 01:14:17;;;;;;;12.75;6.03;;;;;;;;;;5095129;28;20023;-82
2024/01/21 01:16:43;;;;;;;10.25;5.90;;;;;;;;;;5094832;28;20096;-81
2024/01/21 01:19:08;;;;;;;11.57;6.00;;;;;;;;;;5095027;28;20134;-82
2024/01/21 01:21:34;;;;;;;8.68;5.63;;;;;;;;;;5111398;28;20026;-81
2024/01/21 01:23:59;;;;;;;11.73;6.72;;;;;;;;;;5112078;28;20052;-82
2024/01/21 01:26:25;;;;;;;10.27;5.97;;;;;;;;;;5114907;28;20526;-81
2024/01/21 01:28:50;;;;;;;13.68;6.70;;;;;;;;;;5112901;28;20032;-82
2024/01/21 01:31:16;;;;;;;17.63;6.68;;;;;;;;;;5111877;28;20016;-80
2024/01/21 01:33:41;;;;;;;16.90;6.95;;;;;;;;;;5090645;28;20044;-81
2024/01/21 01:36:07;;;;;;;15.27;7.75;;;;;;;;;;5098509;28;20512;-82
2024/01/21 01:38:32;;;;;;;12.73;6.95;;;;;;;;;;5095428;28;20023;-81
2024/01/21 01:40:57;;;;;;;14.35;7.13;;;;;;;;;;5076497;28;20016;-82
2024/01/21 01:43:23;;;;;;;13.55;6.70;;;;;;;;;;5095336;28;20023;-82
2024/01/21 01:45:48;;;;;;;13.32;7.18;;;;;;;;;;5095784;28;20020;-83
2024/01/21 01:48:14;;;;;;;15.85;8.15;;;;;;;;;;5078121;28;20461;-82
2024/01/21 01:50:39;;;;;;;13.77;7.50;;;;;;;;;;5080888;28;20491;-81
2024/01/21 01:53:05;;;;;;;16.23;7.90;;;;;;;;;;5095456;28;20436;-80
2024/01/21 01:55:31;;;;;;;22.73;9.07;;;;;;;;;;5095424;28;20536;-82
2024/01/21 01:57:56;;;;;;;18.95;8.77;;;;;;;;;;5095276;28;20016;-81
2024/01/21 02:00:21;;;;;;;17.42;8.85;;;;;;;;;;5094783;28;20521;-81
2024/01/21 02:02:47;;;;;;;20.10;9.88;;;;;;;;;;5094418;28;20354;-80
2024/01/21 02:05:12;;;;;;;21.48;9.57;;;;;;;;;;5095156;28;20456;-81
2024/01/21 02:07:37;;;;;;;22.83;9.93;;;;;;;;;;5095418;28;20031;-82
2024/01/21 02:10:03;;;;;;;20.40;10.10;;;;;;;;;;5095654;28;20024;-81
2024/01/21 02:12:29;;;;;;;22.65;11.30;;;;;;;;;;5095644;28;20029;-82
2024/01/21 02:14:54;;;;;;;20.88;10.93;;;;;;;;;;5095213;28;20024;-82
2024/01/21 02:17:19;;;;;;;20.77;10.50;;;;;;;;;;5094946;28;20100;-82
2024/01/21 02:19:45;;;;;;;21.75;10.35;;;;;;;;;;5095690;28;20028;-81
2024/01/21 02:22:10;;;;;;;25.77;10.43;;;;;;;;;;5094841;28;20102;-81
2024/01/21 02:24:35;;;;;;;22.15;10.95;;;;;;;;;;5094733;28;20067;-82
2024/01/21 02:27:00;;;;;;;20.92;11.38;;;;;;;;;;5072340;28;20048;-82
2024/01/21 02:29:26;;;;;;;21.58;10.05;;;;;;;;;;5073872;28;20429;-83
2024/01/21 02:31:52;;;;;;;23.50;10.70;;;;;;;;;;5073854;28;20020;-81
2024/01/21 02:34:18;;;;;;;26.35;10.45;;;;;;;;;;5073875;28;20048;-81
2024/01/21 02:36:43;;;;;;;19.73;10.73;;;;;;;;;;5074084;28;20047;-81
2024/01/21 02:39:09;;;;;;;25.60;11.65;;;;;;;;;;5073851;28;20063;-82
2024/01/21 02:41:34;;;;;;;24.45;12.30;;;;;;;;;;5073813;28;20462;-83
2024/01/21 02:44:01;;;;;;;24.75;11.57;;;;;;;;;;5073584;28;20081;-82
2024/01/21 02:46:26;;;;;;;24.17;11.30;;;;;;;;;;5073307;28;20020;-81
2024/01/21 02:48:51;;;;;;;24.70;11.70;;;;;;;;;;5072316;28;20058;-82
2024/01/21 02:51:16;;;;;;;25.20;11.10;;;;;;;;;;5074416;28;20484;-81
2024/01/21 02:53:42;;;;;;;25.33;11.45;;;;;;;;;;5077378;28;20025;-81
2024/01/21 02:56:07;;;;;;;24.17;11.75;;;;;;;;;;5077666;28;20024;-81
2024/01/21 02:58:33;;;;;;;29.25;12.73;;;;;;;;;;5077477;28;20032;-81
2024/01/21 03:00:58;;;;;;;28.63;13.18;;;;;;;;;;5077517;28;20025;-83
2024/01/21 03:03:23;;;;;;;27.23;13.57;;;;;;;;;;5077933;28;20726;-82
2024/01/21 03:05:49;;;;;;;27.48;13.57;;;;;;;;;;5077707;28;20462;-81
2024/01/21 03:08:17;;;;;;;25.13;12.63;;;;;;;;;;5077535;28;20032;-83
2024/01/21 03:10:42;;;;;;;26.98;13.75;;;;;;;;;;5077300;28;20078;-82
2024/01/21 03:13:07;;;;;;;27.95;13.38;;;;;;;;;;5077042;28;20024;-80
2024/01/21 03:15:33;;;;;;;27.83;13.48;;;;;;;;;;5075873;28;20458;-83
2024/01/21 03:17:58;;;;;;;28.55;13.05;;;;;;;;;;5077215;28;20048;-81
2024/01/21 03:20:24;;;;;;;27.88;11.90;;;;;;;;;;5075948;28;20025;-81
2024/01/21 03:22:49;;;;;;;32.72;14.20;;;;;;;;;;5076984;28;20028;-82
2024/01/21 03:25:15;;;;;;;29.55;13.95;;;;;;;;;;5081472;28;20047;-81
2024/01/21 03:27:40;;;;;;;34.40;16.02;;;;;;;;;;5097230;28;20024;-82
2024/01/21 03:30:05;;;;;;;27.58;13.52;;;;;;;;;;5096768;28;20518;-82
2024/01/21 03:32:31;;;;;;;26.75;14.82;;;;;;;;;;5098233;28;20024;-81
2024/01/21 03:34:56;;;;;;;27.98;13.50;;;;;;;;;;5079569;28;20065;-82
2024/01/21 03:37:21;;;;;;;31.70;15.98;;;;;;;;;;5097219;28;20103;-82
2024/01/21 03:39:47;;;;;;;31.63;14.50;;;;;;;;;;5096875;28;20475;-82
2024/01/21 03:42:12;;;;;;;32.22;14.90;;;;;;;;;;5097068;28;20024;-82
2024/01/21 03:44:40;;;;;;;33.28;15.50;;;;;;;;;;5080374;28;20031;-82
2024/01/21 03:47:05;;;;;;;29.50;14.25;;;;;;;;;;5100207;28;20095;-81
2024/01/21 03:49:30;;;;;;;30.10;15.05;;;;;;;;;;5081183;28;20457;-81
2024/01/21 03:51:56;;;;;;;29.83;15.45;;;;;;;;;;5101967;28;20024;-82
2024/01/21 03:54:21;;;;;;;28.65;15.55;;;;;;;;;;5098587;28;20020;-82
2024/01/21 03:56:46;;;;;;;30.88;15.00;;;;;;;;;;5096593;28;20028;-81
2024/01/21 03:59:12;;;;;;;29.85;14.52;;;;;;;;;;5096555;28;20024;-81
2024/01/21 04:01:43;;;;;;;38.65;16.27;;;;;;;;;;5078396;28;20023;-82
2024/01/21 04:04:10;;;;;;;24.70;13.70;;;;;;;;;;5095544;28;20024;-82
2024/01/21 04:06:42;;;;;;;34.25;14.40;;;;;;;;;;5096208;28;20103;-82
2024/01/21 04:09:08;;;;;;;28.30;14.85;;;;;;;;;;5096299;28;20024;-82
2024/01/21 04:11:33;;;;;;;29.52;14.55;;;;;;;;;;5096033;28;20020;-81
2024/01/21 04:13:58;;;;;;;31.85;14.52;;;;;;;;;;5095921;28;20076;-82
2024/01/21 04:16:24;;;;;;;28.80;13.75;;;;;;;;;;5096116;28;20031;-82
2024/01/21 04:18:49;;;;;;;26.55;14.30;;;;;;;;;;5096230;28;20052;-81
2024/01/21 04:21:14;;;;;;;44.00;17.00;;;;;;;;;;5096184;28;20028;-80
2024/01/21 04:23:40;;;;;;;30.90;16.80;;;;;;;;;;5096408;28;20032;-81
2024/01/21 04:26:05;;;;;;;38.10;16.83;;;;;;;;;;5095582;28;20628;-80
2024/01/21 04:28:30;;;;;;;37.60;18.13;;;;;;;;;;5095600;28;20427;-83
2024/01/21 04:30:56;;;;;;;34.35;15.45;;;;;;;;;;5096003;28;20020;-81
2024/01/21 04:33:22;;;;;;;32.92;14.85;;;;;;;;;;5095967;28;20419;-81
2024/01/21 04:35:47;;;;;;;34.53;17.45;;;;;;;;;;5095604;28;20024;-81
2024/01/21 04:38:12;;;;;;;35.83;16.38;;;;;;;;;;5077444;28;20118;-81
2024/01/21 04:40:38;;;;;;;28.70;15.68;;;;;;;;;;5095673;28;20073;-81
2024/01/21 04:43:03;;;;;;;44.83;17.85;;;;;;;;;;5077334;28;20111;-81
2024/01/21 04:45:28;;;;;;;37.55;17.00;;;;;;;;;;5095965;28;20077;-82
2024/01/21 04:47:54;;;;;;;30.45;15.85;;;;;;;;;;5095666;28;20024;-81
2024/01/21 04:50:19;;;;;;;32.63;15.60;;;;;;;;;;5095800;28;20027;-81
2024/01/21 04:52:44;;;;;;;35.30;16.73;;;;;;;;;;5095712;28;20376;-81
2024/01/21 04:55:10;;;;;;;30.52;14.80;;;;;;;;;;5096011;28;20016;-81
2024/01/21 04:57:35;;;;;;;32.80;14.95;;;;;;;;;;5095352;28;20364;-81
2024/01/21 05:00:00;;;;;;;30.35;15.40;;;;;;;;;;5095207;28;20446;-81
2024/01/21 05:02:26;;;;;;;36.92;14.45;;;;;;;;;;5076933;28;20020;-80
2024/01/21 05:04:51;;;;;;;34.03;15.38;;;;;;;;;;5095025;28;20020;-81
2024/01/21 05:07:16;;;;;;;36.45;17.33;;;;;;;;;;5076964;28;20028;-81
2024/01/21 05:09:42;;;;;;;36.28;17.00;;;;;;;;;;5094987;28;20027;-81
2024/01/21 05:12:07;;;;;;;36.60;16.90;;;;;;;;;;5076835;28;20022;-80
2024/01/21 05:14:32;;;;;;;39.50;17.20;;;;;;;;;;5094104;28;20152;-81
2024/01/21 05:16:57;;;;;;;38.53;16.63;;;;;;;;;;5094637;28;20020;-81
2024/01/21 05:19:23;;;;;;;36.95;16.40;;;;;;;;;;5094784;28;20415;-82
2024/01/21 05:21:48;;;;;;;37.60;17.30;;;;;;;;;;5076834;28;20031;-82
2024/01/21 05:24:13;;;;;;;33.53;15.07;;;;;;;;;;5095170;28;20062;-81
2024/01/21 05:26:45;;;;;;;31.52;15.02;;;;;;;;;;5072871;28;20049;-81
2024/01/21 05:29:11;;;;;;;32.00;15.30;;;;;;;;;;5074754;28;20395;-81
2024/01/21 05:31:36;;;;;;;42.17;18.13;;;;;;;;;;5074363;28;20040;-80
2024/01/21 05:34:01;;;;;;;38.33;16.85;;;;;;;;;;5074926;28;20025;-82
2024/01/21 05:36:27;;;;;;;40.08;17.60;;;;;;;;;;5073098;28;20029;-82
2024/01/21 05:38:52;;;;;;;35.05;16.30;;;;;;;;;;5072990;28;20020;-81
2024/01/21 05:41:17;;;;;;;34.17;14.20;;;;;;;;;;5074823;28;20160;-82
2024/01/21 05:43:42;;;;;;;35.20;16.73;;;;;;;;;;5074525;28;20024;-82
2024/01/21 05:46:08;;;;;;;36.80;17.88;;;;;;;;;;5074495;28;20475;-81
2024/01/21 05:48:33;;;;;;;38.28;16.73;;;;;;;;;;5074370;28;20029;-80
2024/01/21 05:50:58;;;;;;;34.95;16.10;;;;;;;;;;5084094;28;20028;-82
2024/01/21 05:53:24;;;;;;;33.65;15.88;;;;;;;;;;5098573;28;20047;-82
2024/01/21 05:55:49;;;;;;;39.05;17.90;;;;;;;;;;5098708;28;20089;-81
2024/01/21 05:58:15;;;;;;;36.58;16.27;;;;;;;;;;5097993;28;20020;-79
2024/01/21 06:00:40;;;;;;;44.80;17.40;;;;;;;;;;5094329;28;20028;-81
2024/01/21 06:03:06;;;;;;;40.53;16.58;;;;;;;;;;5095221;28;20481;-82
2024/01/21 06:05:31;;;;;;;38.72;15.95;;;;;;;;;;5096759;28;20048;-80
2024/01/21 06:07:56;;;;;;;40.80;16.42;;;;;;;;;;5090779;28;20020;-82
2024/01/21 06:10:22;;;;;;;38.83;16.88;;;;;;;;;;5074316;28;20032;-81
2024/01/21 06:12:47;;;;;;;39.10;18.98;;;;;;;;;;5072575;28;20020;-81
2024/01/21 06:15:12;;;;;;;43.47;19.25;;;;;;;;;;5073239;28;20027;-82
2024/01/21 06:17:38;;;;;;;38.13;19.08;;;;;;;;;;5074637;28;20058;-81
2024/01/21 06:20:03;;;;;;;45.67;18.02;;;;;;;;;;5074550;28;20040;-84
2024/01/21 06:22:29;;;;;;;43.05;16.77;;;;;;;;;;5072764;28;20021;-81
2024/01/21 06:24:54;;;;;;;37.22;16.35;;;;;;;;;;5075452;28;20478;-81
2024/01/21 06:27:19;;;;;;;32.28;16.70;;;;;;;;;;5102467;28;20036;-81
2024/01/21 06:29:45;;;;;;;34.35;17.33;;;;;;;;;;5102286;28;20066;-81
2024/01/21 06:32:10;;;;;;;38.70;17.58;;;;;;;;;;5102544;28;20089;-81
2024/01/21 06:34:35;;;;;;;50.05;21.00;;;;;;;;;;5102648;28;20024;-82
2024/01/21 06:37:01;;;;;;;41.40;20.27;;;;;;;;;;5095100;28;20051;-81
2024/01/21 06:39:26;;;;;;;42.50;20.73;;;;;;;;;;5075851;28;20461;-83
2024/01/21 06:41:51;;;;;;;42.25;19.65;;;;;;;;;;5093619;28;20024;-80
2024/01/21 06:44:16;;;;;;;43.85;19.50;;;;;;;;;;5093715;28;20507;-81
2024/01/21 06:46:42;;;;;;;47.60;23.40;;;;;;;;;;5093818;28;20103;-81
2024/01/21 06:49:07;;;;;;;44.42;20.95;;;;;;;;;;5093501;28;20028;-80
2024/01/21 06:51:43;;;;;;;43.80;21.38;;;;;;;;;;5094074;28;20028;-82
2024/01/21 06:54:08;;;;;;;43.58;19.90;;;;;;;;;;5093733;28;20078;-82
2024/01/21 06:56:34;;;;;;;41.05;19.08;;;;;;;;;;5077053;28;20024;-81
2024/01/21 06:58:59;;;;;;;39.10;19.15;;;;;;;;;;5075808;28;20465;-82
2024/01/21 07:01:24;;;;;;;44.65;19.95;;;;;;;;;;5093752;28;20066;-82
2024/01/21 07:03:50;;;;;;;40.13;20.10;;;;;;;;;;5075344;28;20044;-81
2024/01/21 07:06:15;;;;;;;48.25;20.45;;;;;;;;;;5093836;28;20093;-81
2024/01/21 07:08:41;;;;;;;43.28;19.60;;;;;;;;;;5075442;28;20028;-81
2024/01/21 07:11:09;;;;;;;45.17;21.35;;;;;;;;;;5093437;28;20020;-81
2024/01/21 07:13:34;;;;;;;40.92;19.75;;;;;;;;;;5093774;28;20024;-83
2024/01/21 07:16:00;;;;;;;38.65;18.60;;;;;;;;;;5093717;28;20091;-83
2024/01/21 07:18:25;;;;;;;37.60;20.35;;;;;;;;;;5093591;28;20032;-82
2024/01/21 07:20:50;;;;;;;46.13;20.95;;;;;;;;;;5093681;28;20028;-81
2024/01/21 07:23:16;;;;;;;43.80;18.58;;;;;;;;;;5093709;28;20032;-82
2024/01/21 07:25:41;;;;;;;44.10;20.70;;;;;;;;;;5093073;28;20602;-80
2024/01/21 07:28:06;;;;;;;38.97;19.33;;;;;;;;;;5078292;28;20023;-82
2024/01/21 07:30:32;;;;;;;47.03;21.02;;;;;;;;;;5098872;28;20027;-81
2024/01/21 07:32:57;;;;;;;46.83;20.45;;;;;;;;;;5094275;28;20461;-81
2024/01/21 07:35:22;;;;;;;40.47;19.38;;;;;;;;;;5094288;28;20467;-82
2024/01/21 07:37:47;;;;;;;41.53;19.80;;;;;;;;;;5095125;28;20031;-80
2024/01/21 07:40:13;;;;;;;40.10;20.33;;;;;;;;;;5099431;28;20024;-82
2024/01/21 07:42:38;;;;;;;57.25;24.10;;;;;;;;;;5104422;28;20031;-83
2024/01/21 07:45:04;;;;;;;53.10;22.50;;;;;;;;;;5105834;28;20032;-81
2024/01/21 07:47:29;;;;;;;52.33;24.23;;;;;;;;;;5104148;28;20035;-82
2024/01/21 07:49:55;;;;;;;48.40;22.30;;;;;;;;;;5104224;28;20039;-79
2024/01/21 07:52:20;;;;;;;42.78;18.75;;;;;;;;;;5104411;28;20031;-82
2024/01/21 07:54:46;;;;;;;44.47;19.20;;;;;;;;;;5100901;28;20077;-82
2024/01/21 07:57:11;;;;;;;38.88;18.90;;;;;;;;;;5097905;28;20115;-81
2024/01/21 07:59:36;;;;;;;42.58;18.70;;;;;;;;;;5098871;28;20059;-80
2024/01/21 08:02:02;;;;;;;43.40;19.50;;;;;;;;;;5098918;28;20024;-82
2024/01/21 08:04:27;;;;;;;44.20;20.55;;;;;;;;;;5097946;28;20028;-82
2024/01/21 08:06:52;;;;;;;45.95;20.65;;;;;;;;;;5097012;28;20221;-80
2024/01/21 08:09:21;;;;;;;43.78;21.55;;;;;;;;;;5096125;28;20024;-82
2024/01/21 08:11:46;;;;;;;40.30;19.98;;;;;;;;;;5096617;28;20076;-82
2024/01/21 08:14:11;;;;;;;61.13;23.77;;;;;;;;;;5096434;28;20102;-82
2024/01/21 08:16:37;;;;;;;48.35;23.48;;;;;;;;;;5096154;28;20362;-83
2024/01/21 08:19:03;;;;;;;53.90;23.58;;;;;;;;;;5077928;28;20035;-82
2024/01/21 08:21:29;;;;;;;51.33;23.73;;;;;;;;;;5077827;28;20435;-81
2024/01/21 08:23:54;;;;;;;41.72;21.15;;;;;;;;;;5077622;28;20478;-80
2024/01/21 08:26:19;;;;;;;40.75;19.17;;;;;;;;;;5095659;28;20062;-81
2024/01/21 08:28:44;;;;;;;39.95;18.90;;;;;;;;;;5077504;28;20028;-82
2024/01/21 08:31:10;;;;;;;45.08;16.70;;;;;;;;;;5095756;28;20380;-82
2024/01/21 08:33:36;;;;;;;46.25;20.35;;;;;;;;;;5077543;28;20020;-81
2024/01/21 08:36:01;;;;;;;34.88;17.83;;;;;;;;;;5095903;28;20032;-81
2024/01/21 08:38:26;;;;;;;41.28;18.75;;;;;;;;;;5095635;28;20108;-82
2024/01/21 08:40:52;;;;;;;40.42;18.08;;;;;;;;;;5096419;28;20081;-81
2024/01/21 08:43:17;;;;;;;32.10;15.48;;;;;;;;;;5077879;28;20402;-81
2024/01/21 08:45:42;;;;;;;31.05;15.25;;;;;;;;;;5096211;28;20461;-81
2024/01/21 08:48:08;;;;;;;36.75;16.60;;;;;;;;;;5096250;28;20404;-82
2024/01/21 08:50:33;;;;;;;35.13;16.02;;;;;;;;;;5077441;28;20023;-81
2024/01/21 08:52:59;;;;;;;33.58;16.42;;;;;;;;;;5095690;28;20117;-82
2024/01/21 08:55:25;;;;;;;30.90;14.85;;;;;;;;;;5077408;28;20024;-81
2024/01/21 08:57:50;;;;;;;33.97;15.25;;;;;;;;;;5095604;28;20020;-80
2024/01/21 09:00:15;;;;;;;31.60;14.35;;;;;;;;;;5095735;28;20354;-81
2024/01/21 09:02:41;;;;;;;24.38;12.50;;;;;;;;;;5095451;28;20102;-80
2024/01/21 09:05:06;;;;;;;27.88;13.00;;;;;;;;;;5077115;28;20065;-80
2024/01/21 09:07:31;;;;;;;27.90;14.20;;;;;;;;;;5095432;28;20020;-83
2024/01/21 09:09:57;;;;;;;24.30;12.95;;;;;;;;;;5095733;28;20086;-81
2024/01/21 09:12:22;;;;;;;27.35;13.07;;;;;;;;;;5096579;28;20020;-82
2024/01/21 09:14:47;;;;;;;26.48;13.63;;;;;;;;;;5077869;28;20041;-82
2024/01/21 09:17:13;;;;;;;29.10;14.13;;;;;;;;;;5095746;28;20009;-82
2024/01/21 09:19:38;;;;;;;25.10;13.13;;;;;;;;;;5095672;28;20016;-82
2024/01/21 09:22:04;;;;;;;27.65;11.57;;;;;;;;;;5076811;28;20484;-81
2024/01/21 09:24:29;;;;;;;30.25;14.00;;;;;;;;;;5094862;28;20469;-81
2024/01/21 09:26:54;;;;;;;29.90;13.80;;;;;;;;;;5073229;28;20277;-82
2024/01/21 09:29:19;;;;;;;26.80;12.52;;;;;;;;;;5074547;28;20016;-83
2024/01/21 09:31:55;;;;;;;29.77;14.35;;;;;;;;;;5074602;28;20028;-82
2024/01/21 09:34:20;;;;;;;30.42;12.85;;;;;;;;;;5074751;28;20008;-82
2024/01/21 09:36:45;;;;;;;24.42;12.75;;;;;;;;;;5074596;28;20076;-84
2024/01/21 09:39:11;;;;;;;25.08;12.55;;;;;;;;;;5074539;28;20035;-80
2024/01/21 09:41:38;;;;;;;28.27;11.82;;;;;;;;;;5074396;28;20017;-81
2024/01/21 09:44:03;;;;;;;26.63;11.82;;;;;;;;;;5074283;28;20048;-83
2024/01/21 09:46:29;;;;;;;26.70;11.95;;;;;;;;;;5074172;28;20425;-83
2024/01/21 09:48:56;;;;;;;29.50;12.82;;;;;;;;;;5074069;28;20133;-81
2024/01/21 09:51:22;;;;;;;30.75;13.10;;;;;;;;;;5074192;28;20017;-82
2024/01/21 09:53:47;;;;;;;29.08;13.50;;;;;;;;;;5074154;28;20028;-82
2024/01/21 09:56:13;;;;;;;27.67;12.60;;;;;;;;;;5074523;28;20070;-81
2024/01/21 09:58:44;;;;;;;24.17;12.13;;;;;;;;;;5074048;28;20020;-81
2024/01/21 10:01:09;;;;;;;26.67;12.73;;;;;;;;;;5072520;28;20016;-82
2024/01/21 10:03:35;;;;;;;25.88;12.38;;;;;;;;;;5073743;28;20101;-82
2024/01/21 10:06:00;;;;;;;32.90;14.98;;;;;;;;;;5074796;28;20451;-83
2024/01/21 10:08:27;;;;;;;29.42;12.57;;;;;;;;;;5073868;28;20028;-82
2024/01/21 10:10:53;;;;;;;34.88;13.73;;;;;;;;;;5074606;28;20016;-82
2024/01/21 10:13:19;;;;;;;26.98;12.65;;;;;;;;;;5072549;28;20017;-82
2024/01/21 10:15:44;;;;;;;26.33;12.68;;;;;;;;;;5075808;28;20552;-81
2024/01/21 10:18:09;;;;;;;29.98;12.13;;;;;;;;;;5075278;28;20092;-84
2024/01/21 10:20:36;;;;;;;26.27;11.63;;;;;;;;;;5073758;28;20042;-83
2024/01/21 10:23:11;;;;;;;22.77;12.05;;;;;;;;;;5072780;28;20012;-83
2024/01/21 10:25:38;;;;;;;30.20;12.07;;;;;;;;;;5074403;28;20036;-81
2024/01/21 10:28:04;;;;;;;28.05;13.07;;;;;;;;;;5085834;28;20013;-82
2024/01/21 10:30:29;;;;;;;30.90;13.48;;;;;;;;;;5088354;28;20036;-81
2024/01/21 10:32:55;;;;;;;24.50;12.13;;;;;;;;;;5088149;28;20031;-81
2024/01/21 10:35:20;;;;;;;27.25;10.55;;;;;;;;;;5089588;28;20016;-82
2024/01/21 10:37:46;;;;;;;24.00;10.63;;;;;;;;;;5095091;28;20020;-81
2024/01/21 10:40:12;;;;;;;31.70;11.95;;;;;;;;;;5096049;28;20012;-79
2024/01/21 10:42:39;;;;;;;23.63;11.90;;;;;;;;;;5091335;28;20008;-82
2024/01/21 10:45:05;;;;;;;24.05;12.43;;;;;;;;;;5074017;28;20012;-81
2024/01/21 10:47:32;;;;;;;31.67;13.63;;;;;;;;;;5074327;28;20096;-83
2024/01/21 10:49:57;;;;;;;29.02;13.80;;;;;;;;;;5072816;28;20405;-81
2024/01/21 10:52:23;;;;;;;27.15;13.65;;;;;;;;;;5072751;28;20095;-82
2024/01/21 10:54:49;;;;;;;26.55;12.75;;;;;;;;;;5073505;28;20444;-82
2024/01/21 10:57:15;;;;;;;32.08;14.57;;;;;;;;;;5072384;28;20090;-82
2024/01/21 10:59:40;;;;;;;35.75;15.23;;;;;;;;;;5073534;28;20107;-82
2024/01/21 11:02:07;;;;;;;30.70;14.13;;;;;;;;;;5073771;28;20492;-82
2024/01/21 11:04:34;;;;;;;28.73;14.40;;;;;;;;;;5073528;28;20016;-82
2024/01/21 11:07:01;;;;;;;23.10;12.65;;;;;;;;;;5073798;28;20020;-81
2024/01/21 11:09:28;;;;;;;30.10;14.57;;;;;;;;;;5073951;28;20028;-81
2024/01/21 11:11:55;;;;;;;25.35;12.90;;;;;;;;;;5073814;28;20024;-83
2024/01/21 11:14:30;;;;;;;27.90;12.90;;;;;;;;;;5074633;28;20047;-82
2024/01/21 11:16:59;;;;;;;24.08;11.90;;;;;;;;;;5077080;28;20032;-83
2024/01/21 11:19:24;;;;;;;23.17;11.95;;;;;;;;;;5077155;28;20029;-83
2024/01/21 11:21:54;;;;;;;24.38;11.48;;;;;;;;;;5076106;28;20025;-82
2024/01/21 11:24:19;;;;;;;29.25;12.07;;;;;;;;;;5077072;28;20032;-82
2024/01/21 11:26:48;;;;;;;29.88;13.10;;;;;;;;;;5093585;28;20043;-81
2024/01/21 11:29:30;;;;;;;31.70;13.57;;;;;;;;;;5097021;28;20032;-83
2024/01/21 11:31:55;;;;;;;;;;;;;;;;;;5097915;28;20399;-83
2024/01/21 11:34:21;;;;;;;27.08;12.05;;;;;;;;;;5096960;28;19910;-82
2024/01/21 11:36:47;;;;;;;28.25;13.20;;;;;;;;;;5097204;28;20024;-82
2024/01/21 11:39:12;;;;;;;30.27;14.20;;;;;;;;;;5096897;28;20099;-81
2024/01/21 11:41:40;;;;;;;31.45;14.50;;;;;;;;;;5078520;28;20088;-82
2024/01/21 11:44:09;;;;;;;34.03;15.27;;;;;;;;;;5096726;28;20527;-82
2024/01/21 11:46:35;;;;;;;32.35;14.10;;;;;;;;;;5078754;28;20012;-82
2024/01/21 11:49:02;;;;;;;33.80;14.77;;;;;;;;;;5096596;28;20066;-81
2024/01/21 11:51:27;;;;;;;30.80;14.63;;;;;;;;;;5078596;28;20111;-81
2024/01/21 11:53:53;;;;;;;30.40;13.45;;;;;;;;;;5096882;28;20027;-82
2024/01/21 11:56:18;;;;;;;26.52;12.68;;;;;;;;;;5096883;28;20024;-83
2024/01/21 11:58:43;;;;;;;26.40;12.80;;;;;;;;;;5096695;28;20023;-81
2024/01/21 12:01:09;;;;;;;25.27;12.90;;;;;;;;;;5078393;28;20024;-82
2024/01/21 12:03:34;;;;;;;24.35;11.98;;;;;;;;;;5096634;28;20483;-81
2024/01/21 12:06:00;;;;;;;26.35;13.48;;;;;;;;;;5096767;28;20036;-82
2024/01/21 12:08:25;;;;;;;23.25;11.35;;;;;;;;;;5096837;28;20059;-82
2024/01/21 12:10:51;;;;;;;24.73;12.07;;;;;;;;;;5097060;28;20024;-82
2024/01/21 12:13:16;;;;;;;27.45;12.90;;;;;;;;;;5080338;28;20016;-81
2024/01/21 12:15:41;;;;;;;23.55;12.68;;;;;;;;;;5100803;28;20095;-83
2024/01/21 12:18:06;;;;;;;25.02;12.45;;;;;;;;;;5100816;28;20361;-82
2024/01/21 12:20:32;;;;;;;29.75;12.85;;;;;;;;;;5096949;28;20027;-82
2024/01/21 12:22:57;;;;;;;25.10;13.48;;;;;;;;;;5096346;28;20027;-82
2024/01/21 12:25:24;;;;;;;25.65;13.38;;;;;;;;;;5095577;28;20389;-81
2024/01/21 12:27:54;;;;;;;27.00;13.90;;;;;;;;;;5081000;28;20027;-82
2024/01/21 12:30:19;;;;;;;28.40;13.00;;;;;;;;;;5104530;28;20034;-83
2024/01/21 12:32:45;;;;;;;28.52;14.35;;;;;;;;;;5103602;28;20048;-82
2024/01/21 12:35:11;;;;;;;35.05;15.10;;;;;;;;;;5102127;28;20036;-83
2024/01/21 12:37:36;;;;;;;33.28;15.35;;;;;;;;;;5096271;28;20047;-82
2024/01/21 12:40:01;;;;;;;35.78;17.05;;;;;;;;;;5097501;28;20028;-83
2024/01/21 12:42:27;;;;;;;35.90;16.65;;;;;;;;;;5097560;28;20035;-81
2024/01/21 12:44:52;;;;;;;31.42;15.57;;;;;;;;;;5098098;28;20051;-81
2024/01/21 12:47:18;;;;;;;35.28;17.90;;;;;;;;;;5101141;28;20373;-83
2024/01/21 12:49:43;;;;;;;32.95;15.75;;;;;;;;;;5080839;28;20016;-82
2024/01/21 12:52:09;;;;;;;38.00;16.98;;;;;;;;;;5098348;28;20027;-83
2024/01/21 12:54:34;;;;;;;35.70;16.10;;;;;;;;;;5097110;28;20453;-83
2024/01/21 12:57:03;;;;;;;39.10;17.73;;;;;;;;;;5096549;28;20108;-82
2024/01/21 12:59:28;;;;;;;37.67;18.98;;;;;;;;;;5097120;28;20019;-81
2024/01/21 13:01:54;;;;;;;35.25;17.55;;;;;;;;;;5096451;28;20024;-82
2024/01/21 13:04:20;;;;;;;41.38;19.92;;;;;;;;;;5096598;28;20394;-82
2024/01/21 13:06:45;;;;;;;38.03;18.67;;;;;;;;;;5078071;28;20111;-81
2024/01/21 13:09:10;;;;;;;37.90;18.60;;;;;;;;;;5096342;28;20016;-82
2024/01/21 13:11:36;;;;;;;40.40;18.60;;;;;;;;;;5096062;28;20044;-82
2024/01/21 13:14:01;;;;;;;42.65;20.27;;;;;;;;;;5096528;28;20020;-81
2024/01/21 13:16:26;;;;;;;45.55;19.63;;;;;;;;;;5095365;28;20012;-82
2024/01/21 13:18:51;;;;;;;41.25;19.15;;;;;;;;;;5095396;28;20461;-84
2024/01/21 13:21:17;;;;;;;39.03;18.60;;;;;;;;;;5095394;28;20028;-83
2024/01/21 13:23:43;;;;;;;46.13;19.33;;;;;;;;;;5095357;28;20024;-83
2024/01/21 13:26:10;;;;;;;45.63;19.00;;;;;;;;;;5073332;28;20405;-83
2024/01/21 13:28:49;;;;;;;39.85;19.48;;;;;;;;;;5074807;28;20024;-80
2024/01/21 13:31:14;;;;;;;42.80;20.33;;;;;;;;;;5074645;28;20027;-83
2024/01/21 13:33:41;;;;;;;43.50;20.20;;;;;;;;;;5074746;28;20041;-81
2024/01/21 13:36:06;;;;;;;39.38;19.70;;;;;;;;;;5074005;28;20381;-83
2024/01/21 13:38:33;;;;;;;40.03;18.25;;;;;;;;;;5074408;28;20070;-83
2024/01/21 13:41:02;;;;;;;40.47;19.65;;;;;;;;;;5073393;28;20299;-81
2024/01/21 13:43:27;;;;;;;39.28;18.98;;;;;;;;;;5074201;28;20538;-81
2024/01/21 13:45:53;;;;;;;41.00;19.75;;;;;;;;;;5074459;28;20060;-82
2024/01/21 13:48:18;;;;;;;41.65;18.88;;;;;;;;;;5074047;28;20027;-82
2024/01/21 13:50:44;;;;;;;45.05;19.85;;;;;;;;;;5072944;28;20023;-83
2024/01/21 13:53:09;;;;;;;38.45;19.33;;;;;;;;;;5074044;28;20020;-82
2024/01/21 13:55:34;;;;;;;40.45;18.95;;;;;;;;;;5075215;28;20031;-81
2024/01/21 13:58:02;;;;;;;38.90;17.23;;;;;;;;;;5075451;28;20450;-81
2024/01/21 14:00:27;;;;;;;37.00;15.82;;;;;;;;;;5075360;28;20052;-81
2024/01/21 14:02:56;;;;;;;41.08;17.35;;;;;;;;;;5072929;28;20097;-81
2024/01/21 14:05:22;;;;;;;36.05;16.35;;;;;;;;;;5074262;28;20032;-82
2024/01/21 14:07:48;;;;;;;30.83;16.42;;;;;;;;;;5074915;28;20082;-82
2024/01/21 14:10:13;;;;;;;33.40;16.05;;;;;;;;;;5076527;28;20033;-82